sensor_id;sensor_type;location;lat;lon;timestamp;P1;durP1;ratioP1;P2;durP2;ratioP2
15404;SDS011;7801;48.124;11.590;2023-07-02T00:02:21;0.73;;;0.73;;
15404;SDS011;7801;48.124;11.590;2023-07-02T00:04:47;0.40;;;0.40;;
15404;SDS011;7801;48.124;11.590;2023-07-02T00:07:12;0.47;;;0.47;;
15404;SDS011;7801;48.124;11.590;2023-07-02T00:09:39;0.33;;;0.33;;
15404;SDS011;7801;48.124;11.590;2023-07-02T00:12:05;0.67;;;0.67;;
15404;SDS011;7801;48.124;11.590;2023-07-02T00:14:31;2.97;;;0.60;;
15404;SDS011;7801;48.124;11.590;2023-07-02T00:16:56;1.17;;;1.07;;
15404;SDS011;7801;48.124;11.590;2023-07-02T00:19:22;1.40;;;0.73;;
15404;SDS011;7801;48.124;11.590;2023-07-02T00:21:47;0.33;;;0.33;;
15404;SDS011;7801;48.124;11.590;2023-07-02T00:24:13;0.77;;;0.77;;
15404;SDS011;7801;48.124;11.590;2023-07-02T00:26:40;0.20;;;0.20;;
15404;SDS011;7801;48.124;11.590;2023-07-02T00:29:06;2.87;;;1.57;;
15404;SDS011;7801;48.124;11.590;2023-07-02T00:31:33;0.93;;;0.93;;
15404;SDS011;7801;48.124;11.590;2023-07-02T00:33:59;0.40;;;0.40;;
15404;SDS011;7801;48.124;11.590;2023-07-02T00:36:26;0.20;;;0.20;;
15404;SDS011;7801;48.124;11.590;2023-07-02T00:38:51;0.30;;;0.30;;
15404;SDS011;7801;48.124;11.590;2023-07-02T00:41:17;0.33;;;0.33;;
15404;SDS011;7801;48.124;11.590;2023-07-02T00:43:42;0.40;;;0.40;;
15404;SDS011;7801;48.124;11.590;2023-07-02T00:48:46;0.60;;;0.60;;
15404;SDS011;7801;48.124;11.590;2023-07-02T00:51:17;0.70;;;0.70;;
15404;SDS011;7801;48.124;11.590;2023-07-02T00:53:47;2.87;;;1.90;;
15404;SDS011;7801;48.124;11.590;2023-07-02T00:56:14;0.70;;;0.70;;
15404;SDS011;7801;48.124;11.590;2023-07-02T00:58:40;0.50;;;0.40;;
15404;SDS011;7801;48.124;11.590;2023-07-02T01:01:13;0.37;;;0.37;;
15404;SDS011;7801;48.124;11.590;2023-07-02T01:03:49;0.30;;;0.30;;
15404;SDS011;7801;48.124;11.590;2023-07-02T01:06:17;0.20;;;0.20;;
15404;SDS011;7801;48.124;11.590;2023-07-02T01:08:44;0.47;;;0.47;;
15404;SDS011;7801;48.124;11.590;2023-07-02T01:11:10;0.50;;;0.50;;
15404;SDS011;7801;48.124;11.590;2023-07-02T01:13:35;0.53;;;0.53;;
15404;SDS011;7801;48.124;11.590;2023-07-02T01:16:01;0.73;;;0.73;;
15404;SDS011;7801;48.124;11.590;2023-07-02T01:18:27;0.10;;;0.10;;
15404;SDS011;7801;48.124;11.590;2023-07-02T01:20:52;0.60;;;0.60;;
15404;SDS011;7801;48.124;11.590;2023-07-02T01:23:19;0.43;;;0.43;;
15404;SDS011;7801;48.124;11.590;2023-07-02T01:25:45;0.40;;;0.40;;
15404;SDS011;7801;48.124;11.590;2023-07-02T01:28:11;0.33;;;0.33;;
15404;SDS011;7801;48.124;11.590;2023-07-02T01:30:38;0.40;;;0.40;;
15404;SDS011;7801;48.124;11.590;2023-07-02T01:33:04;0.37;;;0.37;;
15404;SDS011;7801;48.124;11.590;2023-07-02T01:35:29;0.17;;;0.17;;
15404;SDS011;7801;48.124;11.590;2023-07-02T01:37:54;0.60;;;0.60;;
15404;SDS011;7801;48.124;11.590;2023-07-02T01:40:20;0.40;;;0.40;;
15404;SDS011;7801;48.124;11.590;2023-07-02T01:42:45;0.30;;;0.30;;
15404;SDS011;7801;48.124;11.590;2023-07-02T01:45:10;1.87;;;0.77;;
15404;SDS011;7801;48.124;11.590;2023-07-02T01:47:36;0.30;;;0.30;;
15404;SDS011;7801;48.124;11.590;2023-07-02T01:50:02;0.40;;;0.40;;
15404;SDS011;7801;48.124;11.590;2023-07-02T01:52:29;0.10;;;0.10;;
15404;SDS011;7801;48.124;11.590;2023-07-02T01:54:58;0.43;;;0.43;;
15404;SDS011;7801;48.124;11.590;2023-07-02T01:57:23;0.57;;;0.57;;
15404;SDS011;7801;48.124;11.590;2023-07-02T01:59:48;0.20;;;0.20;;
15404;SDS011;7801;48.124;11.590;2023-07-02T02:02:14;0.57;;;0.57;;
15404;SDS011;7801;48.124;11.590;2023-07-02T02:04:39;0.30;;;0.30;;
15404;SDS011;7801;48.124;11.590;2023-07-02T02:07:04;0.47;;;0.47;;
15404;SDS011;7801;48.124;11.590;2023-07-02T02:09:30;0.43;;;0.43;;
15404;SDS011;7801;48.124;11.590;2023-07-02T02:11:57;0.30;;;0.30;;
15404;SDS011;7801;48.124;11.590;2023-07-02T02:14:22;0.40;;;0.40;;
15404;SDS011;7801;48.124;11.590;2023-07-02T02:16:48;1.70;;;1.10;;
15404;SDS011;7801;48.124;11.590;2023-07-02T02:19:13;0.83;;;0.83;;
15404;SDS011;7801;48.124;11.590;2023-07-02T02:21:42;0.20;;;0.20;;
15404;SDS011;7801;48.124;11.590;2023-07-02T02:24:08;0.33;;;0.33;;
15404;SDS011;7801;48.124;11.590;2023-07-02T02:26:34;0.40;;;0.40;;
15404;SDS011;7801;48.124;11.590;2023-07-02T02:29:00;0.33;;;0.33;;
15404;SDS011;7801;48.124;11.590;2023-07-02T02:31:25;0.13;;;0.13;;
15404;SDS011;7801;48.124;11.590;2023-07-02T02:33:51;0.20;;;0.20;;
15404;SDS011;7801;48.124;11.590;2023-07-02T02:36:16;0.20;;;0.20;;
15404;SDS011;7801;48.124;11.590;2023-07-02T02:38:42;0.30;;;0.30;;
15404;SDS011;7801;48.124;11.590;2023-07-02T02:41:08;0.30;;;0.30;;
15404;SDS011;7801;48.124;11.590;2023-07-02T02:43:33;0.20;;;0.20;;
15404;SDS011;7801;48.124;11.590;2023-07-02T02:45:59;0.30;;;0.30;;
15404;SDS011;7801;48.124;11.590;2023-07-02T02:48:24;0.20;;;0.20;;
15404;SDS011;7801;48.124;11.590;2023-07-02T02:50:50;0.20;;;0.20;;
15404;SDS011;7801;48.124;11.590;2023-07-02T02:53:16;0.43;;;0.43;;
15404;SDS011;7801;48.124;11.590;2023-07-02T02:55:41;0.40;;;0.40;;
15404;SDS011;7801;48.124;11.590;2023-07-02T02:58:06;0.13;;;0.13;;
15404;SDS011;7801;48.124;11.590;2023-07-02T03:00:32;0.40;;;0.40;;
15404;SDS011;7801;48.124;11.590;2023-07-02T03:02:58;0.40;;;0.40;;
15404;SDS011;7801;48.124;11.590;2023-07-02T03:05:24;0.30;;;0.30;;
15404;SDS011;7801;48.124;11.590;2023-07-02T03:07:49;0.30;;;0.30;;
15404;SDS011;7801;48.124;11.590;2023-07-02T03:10:15;0.43;;;0.43;;
15404;SDS011;7801;48.124;11.590;2023-07-02T03:12:40;0.20;;;0.20;;
15404;SDS011;7801;48.124;11.590;2023-07-02T03:15:06;0.23;;;0.23;;
15404;SDS011;7801;48.124;11.590;2023-07-02T03:17:32;0.30;;;0.30;;
15404;SDS011;7801;48.124;11.590;2023-07-02T03:19:57;0.40;;;0.40;;
15404;SDS011;7801;48.124;11.590;2023-07-02T03:22:22;0.33;;;0.33;;
15404;SDS011;7801;48.124;11.590;2023-07-02T03:24:48;0.40;;;0.40;;
15404;SDS011;7801;48.124;11.590;2023-07-02T03:27:13;0.33;;;0.33;;
15404;SDS011;7801;48.124;11.590;2023-07-02T03:29:38;0.30;;;0.30;;
15404;SDS011;7801;48.124;11.590;2023-07-02T03:32:04;0.50;;;0.50;;
15404;SDS011;7801;48.124;11.590;2023-07-02T03:34:30;0.30;;;0.30;;
15404;SDS011;7801;48.124;11.590;2023-07-02T03:36:55;0.73;;;0.73;;
15404;SDS011;7801;48.124;11.590;2023-07-02T03:39:21;0.50;;;0.50;;
15404;SDS011;7801;48.124;11.590;2023-07-02T03:41:46;0.50;;;0.50;;
15404;SDS011;7801;48.124;11.590;2023-07-02T03:44:11;0.40;;;0.40;;
15404;SDS011;7801;48.124;11.590;2023-07-02T03:46:37;0.30;;;0.30;;
15404;SDS011;7801;48.124;11.590;2023-07-02T03:49:02;7.77;;;0.90;;
15404;SDS011;7801;48.124;11.590;2023-07-02T03:51:28;0.67;;;0.67;;
15404;SDS011;7801;48.124;11.590;2023-07-02T03:53:54;0.63;;;0.63;;
15404;SDS011;7801;48.124;11.590;2023-07-02T03:56:21;0.83;;;0.60;;
15404;SDS011;7801;48.124;11.590;2023-07-02T03:58:46;0.60;;;0.60;;
15404;SDS011;7801;48.124;11.590;2023-07-02T04:01:12;2.43;;;0.30;;
15404;SDS011;7801;48.124;11.590;2023-07-02T04:03:37;0.60;;;0.60;;
15404;SDS011;7801;48.124;11.590;2023-07-02T04:06:03;0.77;;;0.77;;
15404;SDS011;7801;48.124;11.590;2023-07-02T04:08:30;0.83;;;0.70;;
15404;SDS011;7801;48.124;11.590;2023-07-02T04:10:56;0.50;;;0.50;;
15404;SDS011;7801;48.124;11.590;2023-07-02T04:13:21;1.10;;;0.80;;
15404;SDS011;7801;48.124;11.590;2023-07-02T04:15:50;0.23;;;0.23;;
15404;SDS011;7801;48.124;11.590;2023-07-02T04:18:15;0.60;;;0.60;;
15404;SDS011;7801;48.124;11.590;2023-07-02T04:20:40;1.10;;;1.00;;
15404;SDS011;7801;48.124;11.590;2023-07-02T04:23:06;0.83;;;0.83;;
15404;SDS011;7801;48.124;11.590;2023-07-02T04:25:31;0.47;;;0.47;;
15404;SDS011;7801;48.124;11.590;2023-07-02T04:27:57;0.83;;;0.50;;
15404;SDS011;7801;48.124;11.590;2023-07-02T04:30:23;1.17;;;0.53;;
15404;SDS011;7801;48.124;11.590;2023-07-02T04:32:50;0.70;;;0.70;;
15404;SDS011;7801;48.124;11.590;2023-07-02T04:35:16;0.40;;;0.40;;
15404;SDS011;7801;48.124;11.590;2023-07-02T04:37:41;0.70;;;0.70;;
15404;SDS011;7801;48.124;11.590;2023-07-02T04:40:06;2.43;;;0.70;;
15404;SDS011;7801;48.124;11.590;2023-07-02T04:42:39;0.50;;;0.50;;
15404;SDS011;7801;48.124;11.590;2023-07-02T04:45:06;0.83;;;0.70;;
15404;SDS011;7801;48.124;11.590;2023-07-02T04:47:33;0.93;;;0.83;;
15404;SDS011;7801;48.124;11.590;2023-07-02T04:50:00;0.60;;;0.60;;
15404;SDS011;7801;48.124;11.590;2023-07-02T04:52:25;0.50;;;0.50;;
15404;SDS011;7801;48.124;11.590;2023-07-02T04:54:50;0.70;;;0.70;;
15404;SDS011;7801;48.124;11.590;2023-07-02T04:57:16;2.83;;;0.87;;
15404;SDS011;7801;48.124;11.590;2023-07-02T04:59:42;0.60;;;0.60;;
15404;SDS011;7801;48.124;11.590;2023-07-02T05:02:08;0.60;;;0.60;;
15404;SDS011;7801;48.124;11.590;2023-07-02T05:04:33;0.53;;;0.53;;
15404;SDS011;7801;48.124;11.590;2023-07-02T05:07:02;0.80;;;0.73;;
15404;SDS011;7801;48.124;11.590;2023-07-02T05:09:28;1.03;;;1.03;;
15404;SDS011;7801;48.124;11.590;2023-07-02T05:11:53;0.50;;;0.50;;
15404;SDS011;7801;48.124;11.590;2023-07-02T05:14:18;0.57;;;0.57;;
15404;SDS011;7801;48.124;11.590;2023-07-02T05:16:44;0.20;;;0.20;;
15404;SDS011;7801;48.124;11.590;2023-07-02T05:19:09;0.50;;;0.50;;
15404;SDS011;7801;48.124;11.590;2023-07-02T05:21:34;0.50;;;0.50;;
15404;SDS011;7801;48.124;11.590;2023-07-02T05:24:00;0.63;;;0.63;;
15404;SDS011;7801;48.124;11.590;2023-07-02T05:26:25;1.00;;;1.00;;
15404;SDS011;7801;48.124;11.590;2023-07-02T05:28:52;0.57;;;0.57;;
15404;SDS011;7801;48.124;11.590;2023-07-02T05:31:17;0.73;;;0.60;;
15404;SDS011;7801;48.124;11.590;2023-07-02T05:33:42;0.80;;;0.80;;
15404;SDS011;7801;48.124;11.590;2023-07-02T05:36:08;0.60;;;0.60;;
15404;SDS011;7801;48.124;11.590;2023-07-02T05:38:33;3.00;;;1.60;;
15404;SDS011;7801;48.124;11.590;2023-07-02T05:40:58;1.40;;;1.07;;
15404;SDS011;7801;48.124;11.590;2023-07-02T05:43:24;1.00;;;1.00;;
15404;SDS011;7801;48.124;11.590;2023-07-02T05:45:50;0.40;;;0.40;;
15404;SDS011;7801;48.124;11.590;2023-07-02T05:48:16;0.70;;;0.70;;
15404;SDS011;7801;48.124;11.590;2023-07-02T05:50:41;0.57;;;0.57;;
15404;SDS011;7801;48.124;11.590;2023-07-02T05:53:07;0.53;;;0.53;;
15404;SDS011;7801;48.124;11.590;2023-07-02T05:55:34;0.40;;;0.40;;
15404;SDS011;7801;48.124;11.590;2023-07-02T05:57:59;0.80;;;0.80;;
15404;SDS011;7801;48.124;11.590;2023-07-02T06:00:26;0.33;;;0.33;;
15404;SDS011;7801;48.124;11.590;2023-07-02T06:02:52;0.10;;;0.10;;
15404;SDS011;7801;48.124;11.590;2023-07-02T06:05:17;0.50;;;0.50;;
15404;SDS011;7801;48.124;11.590;2023-07-02T06:07:43;0.87;;;0.67;;
15404;SDS011;7801;48.124;11.590;2023-07-02T06:10:08;0.93;;;0.73;;
15404;SDS011;7801;48.124;11.590;2023-07-02T06:12:34;1.53;;;0.53;;
15404;SDS011;7801;48.124;11.590;2023-07-02T06:14:59;0.50;;;0.50;;
15404;SDS011;7801;48.124;11.590;2023-07-02T06:17:24;0.60;;;0.60;;
15404;SDS011;7801;48.124;11.590;2023-07-02T06:19:50;1.27;;;1.17;;
15404;SDS011;7801;48.124;11.590;2023-07-02T06:22:15;0.80;;;0.80;;
15404;SDS011;7801;48.124;11.590;2023-07-02T06:24:40;0.63;;;0.63;;
15404;SDS011;7801;48.124;11.590;2023-07-02T06:27:06;0.63;;;0.63;;
15404;SDS011;7801;48.124;11.590;2023-07-02T06:29:31;0.40;;;0.40;;
15404;SDS011;7801;48.124;11.590;2023-07-02T06:31:56;5.33;;;0.83;;
15404;SDS011;7801;48.124;11.590;2023-07-02T06:34:22;0.90;;;0.87;;
15404;SDS011;7801;48.124;11.590;2023-07-02T06:36:47;0.63;;;0.63;;
15404;SDS011;7801;48.124;11.590;2023-07-02T06:39:13;0.67;;;0.67;;
15404;SDS011;7801;48.124;11.590;2023-07-02T06:41:38;0.30;;;0.30;;
15404;SDS011;7801;48.124;11.590;2023-07-02T06:44:03;0.53;;;0.53;;
15404;SDS011;7801;48.124;11.590;2023-07-02T06:46:29;0.30;;;0.30;;
15404;SDS011;7801;48.124;11.590;2023-07-02T06:48:55;0.90;;;0.90;;
15404;SDS011;7801;48.124;11.590;2023-07-02T06:51:21;0.40;;;0.40;;
15404;SDS011;7801;48.124;11.590;2023-07-02T06:53:47;0.70;;;0.70;;
15404;SDS011;7801;48.124;11.590;2023-07-02T06:56:13;0.73;;;0.73;;
15404;SDS011;7801;48.124;11.590;2023-07-02T06:58:44;1.00;;;0.67;;
15404;SDS011;7801;48.124;11.590;2023-07-02T07:01:09;1.00;;;1.00;;
15404;SDS011;7801;48.124;11.590;2023-07-02T07:03:35;1.70;;;1.60;;
15404;SDS011;7801;48.124;11.590;2023-07-02T07:06:00;0.87;;;0.87;;
15404;SDS011;7801;48.124;11.590;2023-07-02T07:08:26;1.10;;;1.10;;
15404;SDS011;7801;48.124;11.590;2023-07-02T07:10:52;0.90;;;0.90;;
15404;SDS011;7801;48.124;11.590;2023-07-02T07:13:17;3.40;;;0.97;;
15404;SDS011;7801;48.124;11.590;2023-07-02T07:15:42;1.03;;;0.93;;
15404;SDS011;7801;48.124;11.590;2023-07-02T07:18:08;0.50;;;0.50;;
15404;SDS011;7801;48.124;11.590;2023-07-02T07:20:34;0.83;;;0.83;;
15404;SDS011;7801;48.124;11.590;2023-07-02T07:23:01;0.60;;;0.60;;
15404;SDS011;7801;48.124;11.590;2023-07-02T07:25:27;1.20;;;1.10;;
15404;SDS011;7801;48.124;11.590;2023-07-02T07:27:53;1.97;;;0.80;;
15404;SDS011;7801;48.124;11.590;2023-07-02T07:30:19;0.53;;;0.53;;
15404;SDS011;7801;48.124;11.590;2023-07-02T07:32:48;0.80;;;0.80;;
15404;SDS011;7801;48.124;11.590;2023-07-02T07:35:14;0.60;;;0.60;;
15404;SDS011;7801;48.124;11.590;2023-07-02T07:37:40;0.90;;;0.90;;
15404;SDS011;7801;48.124;11.590;2023-07-02T07:40:05;1.43;;;0.60;;
15404;SDS011;7801;48.124;11.590;2023-07-02T07:42:31;0.43;;;0.43;;
15404;SDS011;7801;48.124;11.590;2023-07-02T07:44:56;0.33;;;0.33;;
15404;SDS011;7801;48.124;11.590;2023-07-02T07:47:22;0.70;;;0.70;;
15404;SDS011;7801;48.124;11.590;2023-07-02T07:49:47;0.60;;;0.60;;
15404;SDS011;7801;48.124;11.590;2023-07-02T07:52:12;0.30;;;0.30;;
15404;SDS011;7801;48.124;11.590;2023-07-02T07:54:38;0.63;;;0.63;;
15404;SDS011;7801;48.124;11.590;2023-07-02T07:57:03;0.40;;;0.40;;
15404;SDS011;7801;48.124;11.590;2023-07-02T07:59:29;0.40;;;0.40;;
15404;SDS011;7801;48.124;11.590;2023-07-02T08:01:55;0.83;;;0.83;;
15404;SDS011;7801;48.124;11.590;2023-07-02T08:04:20;1.13;;;1.13;;
15404;SDS011;7801;48.124;11.590;2023-07-02T08:06:45;0.73;;;0.73;;
15404;SDS011;7801;48.124;11.590;2023-07-02T08:09:11;0.33;;;0.33;;
15404;SDS011;7801;48.124;11.590;2023-07-02T08:11:36;0.93;;;0.93;;
15404;SDS011;7801;48.124;11.590;2023-07-02T08:14:01;0.93;;;0.93;;
15404;SDS011;7801;48.124;11.590;2023-07-02T08:16:26;0.90;;;0.90;;
15404;SDS011;7801;48.124;11.590;2023-07-02T08:18:52;0.67;;;0.67;;
15404;SDS011;7801;48.124;11.590;2023-07-02T08:21:17;0.40;;;0.40;;
15404;SDS011;7801;48.124;11.590;2023-07-02T08:23:43;0.93;;;0.93;;
15404;SDS011;7801;48.124;11.590;2023-07-02T08:26:11;0.67;;;0.67;;
15404;SDS011;7801;48.124;11.590;2023-07-02T08:28:37;2.80;;;1.37;;
15404;SDS011;7801;48.124;11.590;2023-07-02T08:31:05;0.70;;;0.70;;
15404;SDS011;7801;48.124;11.590;2023-07-02T08:33:31;0.70;;;0.70;;
15404;SDS011;7801;48.124;11.590;2023-07-02T08:35:56;0.70;;;0.70;;
15404;SDS011;7801;48.124;11.590;2023-07-02T08:38:22;0.40;;;0.40;;
15404;SDS011;7801;48.124;11.590;2023-07-02T08:40:48;0.40;;;0.40;;
15404;SDS011;7801;48.124;11.590;2023-07-02T08:43:14;1.33;;;1.23;;
15404;SDS011;7801;48.124;11.590;2023-07-02T08:45:42;0.80;;;0.80;;
15404;SDS011;7801;48.124;11.590;2023-07-02T08:48:08;7.90;;;0.70;;
15404;SDS011;7801;48.124;11.590;2023-07-02T08:50:33;0.50;;;0.50;;
15404;SDS011;7801;48.124;11.590;2023-07-02T08:52:59;0.77;;;0.77;;
15404;SDS011;7801;48.124;11.590;2023-07-02T08:55:24;0.53;;;0.53;;
15404;SDS011;7801;48.124;11.590;2023-07-02T08:57:51;0.67;;;0.67;;
15404;SDS011;7801;48.124;11.590;2023-07-02T09:00:18;0.80;;;0.80;;
15404;SDS011;7801;48.124;11.590;2023-07-02T09:02:44;0.30;;;0.30;;
15404;SDS011;7801;48.124;11.590;2023-07-02T09:05:11;0.93;;;0.87;;
15404;SDS011;7801;48.124;11.590;2023-07-02T09:07:43;0.60;;;0.60;;
15404;SDS011;7801;48.124;11.590;2023-07-02T09:10:10;0.27;;;0.27;;
15404;SDS011;7801;48.124;11.590;2023-07-02T09:12:35;0.80;;;0.80;;
15404;SDS011;7801;48.124;11.590;2023-07-02T09:15:02;0.50;;;0.30;;
15404;SDS011;7801;48.124;11.590;2023-07-02T09:17:31;0.67;;;0.67;;
15404;SDS011;7801;48.124;11.590;2023-07-02T09:19:59;0.20;;;0.20;;
15404;SDS011;7801;48.124;11.590;2023-07-02T09:22:26;0.50;;;0.50;;
15404;SDS011;7801;48.124;11.590;2023-07-02T09:24:55;0.30;;;0.30;;
15404;SDS011;7801;48.124;11.590;2023-07-02T09:27:35;0.20;;;0.20;;
15404;SDS011;7801;48.124;11.590;2023-07-02T09:30:08;0.53;;;0.53;;
15404;SDS011;7801;48.124;11.590;2023-07-02T09:32:43;0.57;;;0.57;;
15404;SDS011;7801;48.124;11.590;2023-07-02T09:35:10;0.33;;;0.33;;
15404;SDS011;7801;48.124;11.590;2023-07-02T09:37:35;0.80;;;0.80;;
15404;SDS011;7801;48.124;11.590;2023-07-02T09:40:01;0.30;;;0.30;;
15404;SDS011;7801;48.124;11.590;2023-07-02T09:42:30;0.90;;;0.90;;
15404;SDS011;7801;48.124;11.590;2023-07-02T09:44:57;0.67;;;0.67;;
15404;SDS011;7801;48.124;11.590;2023-07-02T09:47:23;0.67;;;0.67;;
15404;SDS011;7801;48.124;11.590;2023-07-02T09:50:01;1.03;;;0.50;;
15404;SDS011;7801;48.124;11.590;2023-07-02T09:52:30;0.37;;;0.37;;
15404;SDS011;7801;48.124;11.590;2023-07-02T09:54:56;1.13;;;1.00;;
15404;SDS011;7801;48.124;11.590;2023-07-02T09:57:21;0.93;;;0.83;;
15404;SDS011;7801;48.124;11.590;2023-07-02T09:59:47;0.97;;;0.97;;
15404;SDS011;7801;48.124;11.590;2023-07-02T10:02:13;0.30;;;0.30;;
15404;SDS011;7801;48.124;11.590;2023-07-02T10:04:39;0.60;;;0.60;;
15404;SDS011;7801;48.124;11.590;2023-07-02T10:07:09;0.63;;;0.63;;
15404;SDS011;7801;48.124;11.590;2023-07-02T10:12:25;1.20;;;1.20;;
15404;SDS011;7801;48.124;11.590;2023-07-02T10:14:51;0.83;;;0.83;;
15404;SDS011;7801;48.124;11.590;2023-07-02T10:17:34;11.40;;;1.13;;
15404;SDS011;7801;48.124;11.590;2023-07-02T10:20:05;0.50;;;0.50;;
15404;SDS011;7801;48.124;11.590;2023-07-02T10:22:43;1.70;;;0.87;;
15404;SDS011;7801;48.124;11.590;2023-07-02T10:25:09;0.57;;;0.57;;
15404;SDS011;7801;48.124;11.590;2023-07-02T10:30:00;1.03;;;1.03;;
15404;SDS011;7801;48.124;11.590;2023-07-02T10:32:28;0.47;;;0.47;;
15404;SDS011;7801;48.124;11.590;2023-07-02T10:34:54;1.27;;;1.27;;
15404;SDS011;7801;48.124;11.590;2023-07-02T10:37:19;1.47;;;1.37;;
15404;SDS011;7801;48.124;11.590;2023-07-02T10:39:45;1.07;;;1.07;;
15404;SDS011;7801;48.124;11.590;2023-07-02T10:42:11;0.70;;;0.70;;
15404;SDS011;7801;48.124;11.590;2023-07-02T10:44:52;9.63;;;1.73;;
15404;SDS011;7801;48.124;11.590;2023-07-02T10:47:18;1.23;;;1.23;;
15404;SDS011;7801;48.124;11.590;2023-07-02T10:49:44;3.17;;;1.83;;
15404;SDS011;7801;48.124;11.590;2023-07-02T10:52:09;1.03;;;1.03;;
15404;SDS011;7801;48.124;11.590;2023-07-02T10:57:07;1.80;;;1.57;;
15404;SDS011;7801;48.124;11.590;2023-07-02T10:59:34;1.67;;;1.57;;
15404;SDS011;7801;48.124;11.590;2023-07-02T11:01:59;2.70;;;2.07;;
15404;SDS011;7801;48.124;11.590;2023-07-02T11:04:27;1.00;;;1.00;;
15404;SDS011;7801;48.124;11.590;2023-07-02T11:06:53;0.93;;;0.93;;
15404;SDS011;7801;48.124;11.590;2023-07-02T11:09:19;1.40;;;1.27;;
15404;SDS011;7801;48.124;11.590;2023-07-02T11:11:52;2.10;;;1.90;;
15404;SDS011;7801;48.124;11.590;2023-07-02T11:14:26;1.43;;;1.37;;
15404;SDS011;7801;48.124;11.590;2023-07-02T11:16:56;1.13;;;1.13;;
15404;SDS011;7801;48.124;11.590;2023-07-02T11:19:22;3.60;;;1.90;;
15404;SDS011;7801;48.124;11.590;2023-07-02T11:21:54;1.53;;;1.50;;
15404;SDS011;7801;48.124;11.590;2023-07-02T11:24:37;1.97;;;1.70;;
15404;SDS011;7801;48.124;11.590;2023-07-02T11:27:03;2.37;;;2.20;;
15404;SDS011;7801;48.124;11.590;2023-07-02T11:29:30;3.27;;;1.87;;
15404;SDS011;7801;48.124;11.590;2023-07-02T11:34:34;2.40;;;2.00;;
15404;SDS011;7801;48.124;11.590;2023-07-02T11:37:00;1.40;;;1.30;;
15404;SDS011;7801;48.124;11.590;2023-07-02T11:39:25;2.27;;;2.10;;
15404;SDS011;7801;48.124;11.590;2023-07-02T11:41:51;3.90;;;2.07;;
15404;SDS011;7801;48.124;11.590;2023-07-02T11:44:17;1.80;;;1.70;;
15404;SDS011;7801;48.124;11.590;2023-07-02T11:46:43;1.80;;;1.70;;
15404;SDS011;7801;48.124;11.590;2023-07-02T11:49:08;3.53;;;1.90;;
15404;SDS011;7801;48.124;11.590;2023-07-02T11:51:37;1.50;;;1.40;;
15404;SDS011;7801;48.124;11.590;2023-07-02T11:54:03;2.13;;;2.03;;
15404;SDS011;7801;48.124;11.590;2023-07-02T11:56:29;2.27;;;2.17;;
15404;SDS011;7801;48.124;11.590;2023-07-02T11:58:55;1.97;;;1.87;;
15404;SDS011;7801;48.124;11.590;2023-07-02T12:01:20;2.37;;;2.20;;
15404;SDS011;7801;48.124;11.590;2023-07-02T12:03:46;3.70;;;2.87;;
15404;SDS011;7801;48.124;11.590;2023-07-02T12:06:11;2.40;;;2.30;;
15404;SDS011;7801;48.124;11.590;2023-07-02T12:08:36;2.03;;;1.93;;
15404;SDS011;7801;48.124;11.590;2023-07-02T12:11:02;3.43;;;2.70;;
15404;SDS011;7801;48.124;11.590;2023-07-02T12:13:27;1.73;;;1.70;;
15404;SDS011;7801;48.124;11.590;2023-07-02T12:15:52;2.80;;;2.60;;
15404;SDS011;7801;48.124;11.590;2023-07-02T12:18:18;3.20;;;1.77;;
15404;SDS011;7801;48.124;11.590;2023-07-02T12:20:43;2.17;;;2.07;;
15404;SDS011;7801;48.124;11.590;2023-07-02T12:23:10;2.57;;;2.47;;
15404;SDS011;7801;48.124;11.590;2023-07-02T12:25:36;2.53;;;2.40;;
15404;SDS011;7801;48.124;11.590;2023-07-02T12:28:02;3.20;;;2.90;;
15404;SDS011;7801;48.124;11.590;2023-07-02T12:30:29;6.80;;;2.37;;
15404;SDS011;7801;48.124;11.590;2023-07-02T12:32:55;1.97;;;1.87;;
15404;SDS011;7801;48.124;11.590;2023-07-02T12:35:20;2.80;;;2.60;;
15404;SDS011;7801;48.124;11.590;2023-07-02T12:37:46;1.97;;;1.87;;
15404;SDS011;7801;48.124;11.590;2023-07-02T12:40:13;2.87;;;2.77;;
15404;SDS011;7801;48.124;11.590;2023-07-02T12:42:42;3.00;;;2.40;;
15404;SDS011;7801;48.124;11.590;2023-07-02T12:45:09;2.10;;;2.00;;
15404;SDS011;7801;48.124;11.590;2023-07-02T12:47:36;2.93;;;2.73;;
15404;SDS011;7801;48.124;11.590;2023-07-02T12:50:02;2.67;;;2.47;;
15404;SDS011;7801;48.124;11.590;2023-07-02T12:52:28;5.00;;;3.53;;
15404;SDS011;7801;48.124;11.590;2023-07-02T12:54:54;2.47;;;2.37;;
15404;SDS011;7801;48.124;11.590;2023-07-02T12:57:19;6.60;;;3.40;;
15404;SDS011;7801;48.124;11.590;2023-07-02T12:59:44;2.57;;;2.37;;
15404;SDS011;7801;48.124;11.590;2023-07-02T13:02:10;3.37;;;3.10;;
15404;SDS011;7801;48.124;11.590;2023-07-02T13:04:36;2.87;;;2.67;;
15404;SDS011;7801;48.124;11.590;2023-07-02T13:07:01;2.60;;;2.50;;
15404;SDS011;7801;48.124;11.590;2023-07-02T13:09:27;4.87;;;3.23;;
15404;SDS011;7801;48.124;11.590;2023-07-02T13:11:52;2.83;;;2.73;;
15404;SDS011;7801;48.124;11.590;2023-07-02T13:14:17;3.53;;;2.43;;
15404;SDS011;7801;48.124;11.590;2023-07-02T13:16:43;4.07;;;3.77;;
15404;SDS011;7801;48.124;11.590;2023-07-02T13:19:08;3.47;;;3.20;;
15404;SDS011;7801;48.124;11.590;2023-07-02T13:21:33;2.57;;;2.47;;
15404;SDS011;7801;48.124;11.590;2023-07-02T13:23:59;3.17;;;2.53;;
15404;SDS011;7801;48.124;11.590;2023-07-02T13:26:24;3.13;;;2.93;;
15404;SDS011;7801;48.124;11.590;2023-07-02T13:28:49;2.80;;;2.70;;
15404;SDS011;7801;48.124;11.590;2023-07-02T13:31:15;3.33;;;3.10;;
15404;SDS011;7801;48.124;11.590;2023-07-02T13:33:41;2.87;;;2.70;;
15404;SDS011;7801;48.124;11.590;2023-07-02T13:36:07;3.37;;;3.07;;
15404;SDS011;7801;48.124;11.590;2023-07-02T13:38:33;3.00;;;2.80;;
15404;SDS011;7801;48.124;11.590;2023-07-02T13:40:58;2.57;;;2.47;;
15404;SDS011;7801;48.124;11.590;2023-07-02T13:43:24;3.97;;;3.67;;
15404;SDS011;7801;48.124;11.590;2023-07-02T13:45:49;3.67;;;3.47;;
15404;SDS011;7801;48.124;11.590;2023-07-02T13:48:14;2.83;;;2.73;;
15404;SDS011;7801;48.124;11.590;2023-07-02T13:50:40;3.90;;;3.67;;
15404;SDS011;7801;48.124;11.590;2023-07-02T13:53:05;2.90;;;2.70;;
15404;SDS011;7801;48.124;11.590;2023-07-02T13:55:30;2.47;;;2.37;;
15404;SDS011;7801;48.124;11.590;2023-07-02T13:57:56;2.97;;;2.77;;
15404;SDS011;7801;48.124;11.590;2023-07-02T14:00:23;3.77;;;3.50;;
15404;SDS011;7801;48.124;11.590;2023-07-02T14:02:48;3.63;;;3.33;;
15404;SDS011;7801;48.124;11.590;2023-07-02T14:05:14;5.13;;;3.30;;
15404;SDS011;7801;48.124;11.590;2023-07-02T14:07:40;4.17;;;3.77;;
15404;SDS011;7801;48.124;11.590;2023-07-02T14:10:05;3.40;;;3.23;;
15404;SDS011;7801;48.124;11.590;2023-07-02T14:12:31;3.20;;;2.90;;
15404;SDS011;7801;48.124;11.590;2023-07-02T14:14:56;3.37;;;3.17;;
15404;SDS011;7801;48.124;11.590;2023-07-02T14:17:22;3.47;;;2.90;;
15404;SDS011;7801;48.124;11.590;2023-07-02T14:19:48;4.13;;;3.83;;
15404;SDS011;7801;48.124;11.590;2023-07-02T14:22:13;3.30;;;3.10;;
15404;SDS011;7801;48.124;11.590;2023-07-02T14:24:39;5.00;;;3.90;;
15404;SDS011;7801;48.124;11.590;2023-07-02T14:27:04;3.13;;;2.90;;
15404;SDS011;7801;48.124;11.590;2023-07-02T14:29:30;4.73;;;4.33;;
15404;SDS011;7801;48.124;11.590;2023-07-02T14:31:55;5.33;;;3.17;;
15404;SDS011;7801;48.124;11.590;2023-07-02T14:34:20;4.33;;;4.00;;
15404;SDS011;7801;48.124;11.590;2023-07-02T14:36:46;3.60;;;3.40;;
15404;SDS011;7801;48.124;11.590;2023-07-02T14:39:11;4.50;;;4.17;;
15404;SDS011;7801;48.124;11.590;2023-07-02T14:41:36;3.50;;;3.30;;
15404;SDS011;7801;48.124;11.590;2023-07-02T14:44:02;3.33;;;3.13;;
15404;SDS011;7801;48.124;11.590;2023-07-02T14:46:28;3.73;;;3.53;;
15404;SDS011;7801;48.124;11.590;2023-07-02T14:48:54;2.67;;;2.57;;
15404;SDS011;7801;48.124;11.590;2023-07-02T14:51:19;4.40;;;4.00;;
15404;SDS011;7801;48.124;11.590;2023-07-02T14:53:44;3.57;;;3.37;;
15404;SDS011;7801;48.124;11.590;2023-07-02T14:56:10;6.23;;;4.37;;